createdAt,value
2019-03-31T00:04:17.437Z,17.10
2019-03-31T00:09:21.050Z,14.50
2019-03-31T00:14:24.705Z,15.67
2019-03-31T00:19:28.290Z,17.77
2019-03-31T00:24:31.873Z,16.40
2019-03-31T00:29:35.531Z,17.40
2019-03-31T00:34:39.169Z,20.20
2019-03-31T00:39:43.229Z,17.17
2019-03-31T00:44:46.809Z,17.67
2019-03-31T00:49:50.405Z,17.33
2019-03-31T00:54:54.066Z,15.73
2019-03-31T00:59:57.656Z,17.43
2019-03-31T01:05:01.751Z,15.77
2019-03-31T01:10:06.851Z,15.20
2019-03-31T01:15:15.482Z,17.33
2019-03-31T01:20:19.283Z,13.80
2019-03-31T01:25:23.433Z,14.00
2019-03-31T01:30:27.233Z,15.43
2019-03-31T01:35:31.225Z,15.77
2019-03-31T01:40:35.050Z,14.90
2019-03-31T01:45:38.963Z,14.13
2019-03-31T01:50:42.948Z,15.77
2019-03-31T01:55:46.611Z,15.80
2019-03-31T02:00:51.911Z,13.53
2019-03-31T02:05:56.002Z,15.30
2019-03-31T02:10:59.922Z,14.53
2019-03-31T02:16:03.658Z,14.03
2019-03-31T02:21:07.318Z,14.53
2019-03-31T02:26:10.901Z,13.77
2019-03-31T02:31:14.938Z,15.80
2019-03-31T02:36:18.926Z,14.93
2019-03-31T02:41:22.995Z,14.13
2019-03-31T02:46:26.665Z,14.90
2019-03-31T02:51:31.234Z,15.63
2019-03-31T02:56:35.576Z,15.23
2019-03-31T03:01:40.394Z,17.17
2019-03-31T03:06:44.772Z,14.97
2019-03-31T03:11:50.990Z,15.80
2019-03-31T03:16:54.754Z,19.00
2019-03-31T03:21:58.336Z,15.60
2019-03-31T03:27:01.947Z,15.27
2019-03-31T03:32:05.684Z,16.00
2019-03-31T03:37:09.442Z,18.33
2019-03-31T03:42:13.022Z,16.47
2019-03-31T03:47:17.034Z,20.70
2019-03-31T03:52:21.045Z,18.33
2019-03-31T03:57:24.994Z,20.73
2019-03-31T04:02:28.585Z,15.63
2019-03-31T04:07:32.177Z,17.33
2019-03-31T04:12:35.773Z,19.13
2019-03-31T04:17:40.292Z,21.43
2019-03-31T04:22:43.875Z,16.27
2019-03-31T04:27:47.829Z,19.37
2019-03-31T04:32:51.759Z,15.33
2019-03-31T04:37:55.343Z,16.70
2019-03-31T04:42:59.000Z,20.40
2019-03-31T04:48:02.594Z,18.00
2019-03-31T04:53:06.184Z,23.17
2019-03-31T04:58:09.778Z,17.30
2019-03-31T05:03:13.350Z,17.47
2019-03-31T05:08:16.928Z,16.37
2019-03-31T05:13:20.593Z,15.87
2019-03-31T05:18:24.177Z,16.83
2019-03-31T05:23:27.826Z,15.50
2019-03-31T05:28:31.796Z,19.03
2019-03-31T05:33:35.461Z,18.00
2019-03-31T05:38:39.064Z,20.20
2019-03-31T05:43:42.986Z,16.87
2019-03-31T05:48:46.576Z,17.73
2019-03-31T05:53:50.148Z,17.07
2019-03-31T05:58:54.181Z,17.97
2019-03-31T06:03:57.841Z,16.57
2019-03-31T06:09:01.438Z,20.23
2019-03-31T06:14:05.265Z,19.03
2019-03-31T06:19:08.863Z,18.30
2019-03-31T06:24:12.814Z,18.30
2019-03-31T06:29:16.389Z,18.20
2019-03-31T06:34:19.969Z,19.07
2019-03-31T06:39:23.549Z,19.37
2019-03-31T06:44:27.132Z,16.50
2019-03-31T06:49:30.723Z,22.53
2019-03-31T06:54:34.304Z,19.87
2019-03-31T06:59:38.265Z,18.97
2019-03-31T07:04:42.198Z,44.87
2019-03-31T07:09:46.095Z,47.07
2019-03-31T07:14:49.756Z,33.47
2019-03-31T07:19:53.650Z,23.43
2019-03-31T07:24:57.362Z,21.43
2019-03-31T07:30:01.017Z,15.20
2019-03-31T07:35:17.797Z,14.03
2019-03-31T07:40:17.918Z,15.07
2019-03-31T07:45:22.085Z,20.33
2019-03-31T07:50:28.313Z,15.33
2019-03-31T07:55:30.933Z,15.57
2019-03-31T08:00:34.572Z,17.23
2019-03-31T08:05:38.158Z,18.87
2019-03-31T08:10:42.149Z,17.60
2019-03-31T08:15:46.052Z,21.03
2019-03-31T08:20:49.648Z,19.80
2019-03-31T08:25:53.242Z,20.77
2019-03-31T08:30:56.837Z,21.70
2019-03-31T08:36:00.424Z,19.43
2019-03-31T08:41:04.368Z,20.63
2019-03-31T08:46:08.330Z,22.80
2019-03-31T08:51:12.333Z,19.93
2019-03-31T08:56:15.925Z,21.40
2019-03-31T09:01:21.173Z,21.83
2019-03-31T09:06:25.146Z,21.50
2019-03-31T09:11:28.736Z,20.70
2019-03-31T09:16:32.348Z,22.87
2019-03-31T09:21:36.317Z,21.03
2019-03-31T09:26:39.913Z,19.83
2019-03-31T09:31:43.510Z,18.60
2019-03-31T09:36:47.416Z,22.87
2019-03-31T09:41:51.320Z,20.97
2019-03-31T09:46:54.912Z,21.40
2019-03-31T09:51:58.580Z,21.77
2019-03-31T09:57:02.186Z,22.10
2019-03-31T10:02:05.792Z,23.83
2019-03-31T10:07:09.520Z,23.60
2019-03-31T10:12:13.109Z,21.47
2019-03-31T10:17:17.124Z,23.20
2019-03-31T10:22:21.044Z,21.33
2019-03-31T10:27:24.643Z,23.07
2019-03-31T10:32:28.570Z,22.33
2019-03-31T10:37:32.164Z,21.77
2019-03-31T10:42:35.993Z,22.83
2019-03-31T10:47:39.581Z,19.63
2019-03-31T10:52:43.302Z,25.63
2019-03-31T10:57:46.931Z,23.17
2019-03-31T11:02:50.912Z,21.50
2019-03-31T11:07:54.855Z,21.10
2019-03-31T11:12:58.726Z,21.43
2019-03-31T11:18:02.310Z,25.40
2019-03-31T11:23:07.863Z,20.77
2019-03-31T11:28:11.884Z,20.87
2019-03-31T11:33:15.485Z,26.43
2019-03-31T11:38:19.073Z,21.77
2019-03-31T11:43:22.667Z,21.47
2019-03-31T11:48:26.259Z,21.20
2019-03-31T11:53:29.836Z,22.27
2019-03-31T11:58:33.446Z,24.67
2019-03-31T12:03:37.022Z,21.70
2019-03-31T12:08:40.617Z,26.70
2019-03-31T12:13:44.972Z,24.30
2019-03-31T12:18:48.936Z,27.03
2019-03-31T12:23:52.969Z,24.87
2019-03-31T12:28:56.561Z,25.20
2019-03-31T12:34:00.154Z,27.27
2019-03-31T12:39:06.333Z,24.30
2019-03-31T12:44:10.249Z,25.07
2019-03-31T12:49:14.150Z,22.87
2019-03-31T12:54:18.082Z,34.13
2019-03-31T12:59:22.143Z,25.53
2019-03-31T13:04:25.742Z,24.33
2019-03-31T13:09:29.343Z,23.00
2019-03-31T13:14:32.924Z,23.77
2019-03-31T13:19:36.899Z,28.77
2019-03-31T13:24:40.665Z,24.90
2019-03-31T13:29:44.245Z,21.73
2019-03-31T13:34:48.209Z,25.27
2019-03-31T13:39:51.803Z,22.70
2019-03-31T13:44:55.705Z,23.77
2019-03-31T13:49:59.307Z,24.03
2019-03-31T13:55:03.868Z,23.03
2019-03-31T14:00:09.980Z,26.90
2019-03-31T14:05:13.693Z,25.23
2019-03-31T14:10:17.367Z,24.03
2019-03-31T14:15:21.032Z,23.93
2019-03-31T14:20:24.619Z,24.60
2019-03-31T14:25:28.209Z,23.23
2019-03-31T14:30:31.858Z,23.13
2019-03-31T14:35:38.131Z,23.67
2019-03-31T14:40:41.236Z,19.87
2019-03-31T14:45:45.168Z,20.13
2019-03-31T14:50:48.749Z,18.67
2019-03-31T14:55:52.334Z,16.50
2019-03-31T15:00:56.211Z,17.30
2019-03-31T15:05:59.865Z,19.77
2019-03-31T15:11:03.457Z,19.23
2019-03-31T15:16:07.045Z,16.30
2019-03-31T15:21:10.648Z,17.97
2019-03-31T15:26:14.550Z,16.23
2019-03-31T15:31:18.133Z,18.90
2019-03-31T15:36:21.760Z,16.00
2019-03-31T15:41:25.408Z,15.07
2019-03-31T15:46:28.996Z,15.37
2019-03-31T15:51:32.974Z,14.50
2019-03-31T15:56:36.552Z,13.97
2019-03-31T16:01:40.743Z,15.13
2019-03-31T16:06:44.569Z,14.20
2019-03-31T16:11:53.861Z,15.70
2019-03-31T16:16:53.825Z,16.07
2019-03-31T16:21:57.641Z,13.60
2019-03-31T16:27:01.218Z,13.67
2019-03-31T16:32:04.952Z,16.70
2019-03-31T16:37:08.541Z,15.57
2019-03-31T16:42:12.158Z,13.23
2019-03-31T16:47:16.092Z,13.27
2019-03-31T16:52:19.668Z,12.63
2019-03-31T16:57:23.328Z,13.40
2019-03-31T17:02:27.370Z,28.97
2019-03-31T17:07:31.028Z,13.97
2019-03-31T17:12:34.720Z,17.27
2019-03-31T17:17:38.297Z,14.23
2019-03-31T17:22:42.275Z,13.70
2019-03-31T17:27:45.941Z,14.93
2019-03-31T17:32:49.594Z,13.43
2019-03-31T17:37:53.405Z,12.83
2019-03-31T17:42:57.015Z,17.00
2019-03-31T17:48:00.599Z,20.43
2019-03-31T17:53:04.241Z,17.03
2019-03-31T17:58:07.873Z,16.00
2019-03-31T18:03:11.607Z,17.43
2019-03-31T18:08:15.263Z,17.07
2019-03-31T18:13:18.854Z,19.07
2019-03-31T18:18:22.447Z,17.63
2019-03-31T18:23:26.108Z,18.50
2019-03-31T18:28:29.791Z,16.87
2019-03-31T18:33:33.377Z,17.77
2019-03-31T18:38:36.961Z,17.63
2019-03-31T18:43:51.337Z,17.83
2019-03-31T18:48:46.181Z,16.07
2019-03-31T18:54:06.823Z,14.47
2019-03-31T18:59:27.344Z,13.00
2019-03-31T19:04:35.304Z,14.97
2019-03-31T19:09:56.990Z,14.93
2019-03-31T19:15:08.607Z,16.23
2019-03-31T19:20:16.909Z,13.73
2019-03-31T19:25:31.108Z,13.87
2019-03-31T19:30:51.781Z,14.27
2019-03-31T19:36:13.451Z,13.33
2019-03-31T19:41:18.977Z,14.07
2019-03-31T19:46:30.143Z,15.17
2019-03-31T19:51:35.454Z,12.87
2019-03-31T19:56:56.949Z,13.93
2019-03-31T20:02:02.557Z,14.80
2019-03-31T20:07:17.026Z,17.57
2019-03-31T20:12:22.257Z,15.93
2019-03-31T20:17:27.485Z,14.80
2019-03-31T20:22:42.038Z,17.43
2019-03-31T20:27:59.831Z,16.37
2019-03-31T20:33:21.197Z,17.93
2019-03-31T20:38:42.875Z,19.60
2019-03-31T20:43:48.097Z,14.80
2019-03-31T20:48:52.588Z,19.67
2019-03-31T20:53:56.249Z,16.10
2019-03-31T20:58:59.834Z,17.03
2019-03-31T21:04:03.508Z,16.27
2019-03-31T21:09:08.714Z,15.30
2019-03-31T21:14:12.303Z,19.63
2019-03-31T21:19:19.035Z,14.83
2019-03-31T21:24:21.476Z,17.67
2019-03-31T21:29:25.133Z,15.27
2019-03-31T21:34:28.792Z,16.60
2019-03-31T21:39:32.733Z,17.90
2019-03-31T21:44:36.329Z,17.40
2019-03-31T21:49:39.999Z,17.90
2019-03-31T21:54:43.596Z,17.13
2019-03-31T21:59:47.414Z,18.70
2019-03-31T22:04:50.995Z,17.50
2019-03-31T22:09:54.610Z,18.30
2019-03-31T22:15:00.404Z,18.37
2019-03-31T22:20:05.985Z,17.40
2019-03-31T22:25:09.733Z,17.53
2019-03-31T22:30:13.881Z,17.83
2019-03-31T22:35:17.475Z,20.47
2019-03-31T22:40:21.133Z,20.40
2019-03-31T22:45:24.720Z,20.30
2019-03-31T22:50:28.306Z,18.73
2019-03-31T22:55:32.189Z,19.50
2019-03-31T23:00:36.021Z,19.20
2019-03-31T23:05:39.612Z,19.03
2019-03-31T23:10:43.260Z,18.37
2019-03-31T23:15:46.993Z,17.17
2019-03-31T23:20:50.585Z,16.57
2019-03-31T23:25:54.341Z,16.53
2019-03-31T23:30:57.901Z,17.00
2019-03-31T23:36:01.560Z,15.73
2019-03-31T23:41:05.170Z,15.20
2019-03-31T23:46:08.854Z,15.40
2019-03-31T23:51:12.434Z,17.30
2019-03-31T23:56:35.734Z,22.27
